Time;durP1;ratioP1;P1;durP2;ratioP2;P2;SDS_P1;SDS_P2;PMS_P1;PMS_P2;Temp;Humidity;BMP_temperature;BMP_pressure;BME280_temperature;BME280_humidity;BME280_pressure;Samples;Min_cycle;Max_cycle;Signal;HPM_P1;HPM_P2
2021/10/11 00:01:01;;;;;;;15.20;10.30;;;;;;;15.98;43.42;102163.56;4991920;28;20482;-78
2021/10/11 00:03:28;;;;;;;15.07;10.52;;;;;;;15.98;43.26;102155.34;4990526;28;20049;-76
2021/10/11 00:05:55;;;;;;;14.85;10.15;;;;;;;15.95;43.46;102153.72;4973371;28;20050;-75
2021/10/11 00:08:22;;;;;;;17.40;10.95;;;;;;;15.93;43.55;102150.19;4990616;28;20116;-78
2021/10/11 00:10:52;;;;;;;15.68;10.88;;;;;;;15.92;43.56;102147.56;4991406;28;20058;-75
2021/10/11 00:13:20;;;;;;;15.13;10.32;;;;;;;15.92;43.17;102155.78;4989802;28;20043;-75
2021/10/11 00:15:47;;;;;;;14.63;10.27;;;;;;;15.88;43.28;102156.97;4991126;28;20149;-75
2021/10/11 00:18:14;;;;;;;14.63;9.90;;;;;;;15.87;43.59;102161.56;4973036;28;20161;-77
2021/10/11 00:20:41;;;;;;;13.50;9.88;;;;;;;15.86;43.29;102164.41;4991258;28;20070;-77
2021/10/11 00:23:10;;;;;;;13.07;9.80;;;;;;;15.85;43.16;102170.88;4989467;28;20058;-77
2021/10/11 00:25:37;;;;;;;14.43;10.32;;;;;;;15.84;43.10;102172.72;4991502;28;20048;-75
2021/10/11 00:28:05;;;;;;;14.07;9.73;;;;;;;15.83;43.18;102175.56;4990114;28;20424;-77
2021/10/11 00:30:32;;;;;;;15.95;10.70;;;;;;;15.82;43.28;102161.00;4991013;28;20533;-77
2021/10/11 00:32:58;;;;;;;16.25;11.00;;;;;;;15.82;43.36;102169.22;4989920;28;20556;-77
2021/10/11 00:35:25;;;;;;;15.52;10.93;;;;;;;15.81;43.38;102167.44;4991255;28;20104;-75
2021/10/11 00:37:51;;;;;;;14.70;10.55;;;;;;;15.80;43.66;102173.06;4989015;28;20138;-76
2021/10/11 00:40:18;;;;;;;15.23;10.55;;;;;;;15.77;43.64;102165.03;4990602;28;20109;-75
2021/10/11 00:42:45;;;;;;;13.43;10.00;;;;;;;15.76;43.82;102171.50;4990042;28;20101;-76
2021/10/11 00:45:11;;;;;;;13.48;9.65;;;;;;;15.76;43.61;102163.28;4991043;28;20473;-75
2021/10/11 00:47:38;;;;;;;17.33;10.93;;;;;;;15.73;43.84;102174.47;4989750;28;20582;-75
2021/10/11 00:50:06;;;;;;;15.65;10.77;;;;;;;15.72;43.80;102159.00;4990961;28;20078;-75
2021/10/11 00:52:33;;;;;;;15.63;11.25;;;;;;;15.69;44.20;102167.41;4986677;28;20097;-77
2021/10/11 00:54:59;;;;;;;14.25;10.90;;;;;;;15.67;44.05;102172.09;4990770;28;20086;-77
2021/10/11 00:57:26;;;;;;;17.50;11.07;;;;;;;15.64;44.24;102169.59;4989199;28;20078;-75
2021/10/11 00:59:53;;;;;;;14.25;10.20;;;;;;;15.63;43.83;102170.56;4989690;28;20042;-77
2021/10/11 01:02:19;;;;;;;16.00;10.75;;;;;;;15.62;43.98;102171.56;4989763;28;20136;-77
2021/10/11 01:04:46;;;;;;;15.48;10.68;;;;;;;15.60;44.02;102166.19;4990799;28;20129;-75
2021/10/11 01:07:12;;;;;;;13.95;10.23;;;;;;;15.58;44.26;102169.00;4988778;28;20054;-75
2021/10/11 01:09:39;;;;;;;15.65;10.18;;;;;;;15.59;43.91;102172.63;4990138;28;20048;-76
2021/10/11 01:12:06;;;;;;;15.93;10.23;;;;;;;15.57;44.26;102169.97;4989592;28;20579;-78
2021/10/11 01:14:32;;;;;;;18.23;11.30;;;;;;;15.57;44.29;102178.19;4990657;28;20140;-75
2021/10/11 01:16:59;;;;;;;14.57;10.35;;;;;;;15.57;44.63;102175.47;4988485;28;20054;-76
2021/10/11 01:19:25;;;;;;;14.45;10.80;;;;;;;15.57;44.74;102183.69;4990569;28;20074;-75
2021/10/11 01:21:52;;;;;;;15.70;10.05;;;;;;;15.56;44.39;102181.06;4989141;28;20489;-76
2021/10/11 01:24:19;;;;;;;14.25;10.40;;;;;;;15.56;44.71;102181.94;4990514;28;20100;-75
2021/10/11 01:26:46;;;;;;;14.88;10.35;;;;;;;15.58;44.76;102182.69;4988347;28;20358;-76
2021/10/11 01:29:15;;;;;;;15.07;10.82;;;;;;;15.61;44.73;102176.16;4972746;28;20173;-75
2021/10/11 01:31:43;;;;;;;16.23;11.05;;;;;;;15.59;44.69;102172.63;4987769;28;20264;-75
2021/10/11 01:34:10;;;;;;;17.40;11.05;;;;;;;15.59;44.90;102172.63;4989752;28;20747;-78
2021/10/11 01:36:37;;;;;;;15.75;10.68;;;;;;;15.58;44.29;102177.22;4989155;28;20089;-77
2021/10/11 01:39:06;;;;;;;16.58;10.77;;;;;;;15.61;44.69;102170.66;4988380;28;20687;-77
2021/10/11 01:41:33;;;;;;;14.98;9.95;;;;;;;15.59;44.32;102162.56;4989694;28;20261;-75
2021/10/11 01:44:00;;;;;;;15.48;10.77;;;;;;;15.59;44.48;102159.81;4962780;28;20572;-77
2021/10/11 01:46:26;;;;;;;15.25;10.77;;;;;;;15.60;44.66;102160.69;4990093;28;20054;-77
2021/10/11 01:48:53;;;;;;;16.40;10.88;;;;;;;15.60;44.97;102161.56;4989431;28;20157;-77
2021/10/11 01:51:22;;;;;;;14.88;10.18;;;;;;;15.61;44.81;102159.72;4992188;28;20104;-75
2021/10/11 01:53:49;;;;;;;14.75;10.55;;;;;;;15.62;45.05;102157.88;5007280;28;20046;-75
2021/10/11 01:56:16;;;;;;;16.20;10.98;;;;;;;15.62;44.75;102160.59;5007380;28;20077;-75
2021/10/11 01:58:43;;;;;;;15.80;11.02;;;;;;;15.62;45.32;102161.47;4963040;28;20108;-75
2021/10/11 02:01:09;;;;;;;16.52;10.90;;;;;;;15.63;45.00;102154.16;4989901;28;20070;-76
2021/10/11 02:03:36;;;;;;;15.23;10.07;;;;;;;15.63;45.04;102145.94;4989216;28;20068;-75
2021/10/11 02:06:03;;;;;;;15.43;9.75;;;;;;;15.63;45.13;102146.81;4989239;28;20467;-77
2021/10/11 02:08:29;;;;;;;13.95;10.35;;;;;;;15.62;45.14;102131.38;4989216;28;20046;-77
2021/10/11 02:10:56;;;;;;;15.25;10.32;;;;;;;15.64;45.13;102147.69;4993535;28;20085;-77
2021/10/11 02:13:22;;;;;;;14.02;9.43;;;;;;;15.65;44.69;102138.50;4950868;28;20051;-77
2021/10/11 02:15:49;;;;;;;15.77;10.32;;;;;;;15.66;44.83;102143.84;4992849;28;20045;-76
2021/10/11 02:18:16;;;;;;;15.07;9.93;;;;;;;15.66;45.10;102141.13;4992551;28;20073;-77
2021/10/11 02:20:42;;;;;;;14.70;10.15;;;;;;;15.67;45.12;102137.41;4993720;28;20042;-75
2021/10/11 02:23:09;;;;;;;14.90;10.05;;;;;;;15.68;45.05;102144.63;4992341;28;20085;-75
2021/10/11 02:25:35;;;;;;;17.70;10.77;;;;;;;15.70;45.22;102139.06;4992983;28;20054;-75
2021/10/11 02:28:02;;;;;;;14.07;10.25;;;;;;;15.70;45.38;102129.00;4990564;28;20124;-75
2021/10/11 02:30:29;;;;;;;15.90;10.48;;;;;;;15.71;45.17;102130.75;4993583;28;20053;-75
2021/10/11 02:32:56;;;;;;;13.95;9.60;;;;;;;15.72;45.23;102128.88;4992603;28;20077;-75
2021/10/11 02:35:23;;;;;;;15.35;10.05;;;;;;;15.72;45.37;102126.16;4993418;28;20129;-75
2021/10/11 02:37:49;;;;;;;14.73;10.65;;;;;;;15.73;45.53;102125.16;4991534;28;20133;-75
2021/10/11 02:40:16;;;;;;;14.18;10.48;;;;;;;15.72;45.57;102123.41;4992937;28;20750;-77
2021/10/11 02:42:42;;;;;;;15.80;10.85;;;;;;;15.73;45.86;102130.66;4965790;28;20129;-77
2021/10/11 02:45:09;;;;;;;16.13;10.52;;;;;;;15.73;45.79;102126.00;4992605;28;20405;-75
2021/10/11 02:47:36;;;;;;;15.70;10.07;;;;;;;15.72;45.75;102117.94;4991301;28;20054;-74
2021/10/11 02:50:04;;;;;;;14.90;10.07;;;;;;;15.74;45.89;102127.78;4992937;28;20502;-75
2021/10/11 02:52:33;;;;;;;16.05;10.15;;;;;;;15.73;45.58;102125.16;4983601;28;20053;-75
2021/10/11 02:55:01;;;;;;;16.35;10.07;;;;;;;15.73;45.73;102125.16;4993119;28;20046;-75
2021/10/11 02:57:28;;;;;;;15.23;10.20;;;;;;;15.72;45.94;102120.69;4991110;28;20540;-75
2021/10/11 02:59:54;;;;;;;14.93;10.65;;;;;;;15.72;46.28;102137.09;4992905;28;20086;-74
2021/10/11 03:02:22;;;;;;;15.63;10.48;;;;;;;15.71;45.92;102136.22;4991592;28;20101;-75
2021/10/11 03:04:50;;;;;;;16.92;10.48;;;;;;;15.69;46.04;102138.19;4992277;28;20094;-74
2021/10/11 03:07:18;;;;;;;16.15;11.25;;;;;;;15.70;46.03;102139.06;4990790;28;20610;-74
2021/10/11 03:09:44;;;;;;;14.68;10.75;;;;;;;15.69;46.13;102143.66;4992652;28;20112;-74
2021/10/11 03:12:11;;;;;;;15.20;10.32;;;;;;;15.68;45.89;102143.75;4991703;28;20050;-74
2021/10/11 03:14:38;;;;;;;16.52;11.13;;;;;;;15.67;46.13;102137.41;4992294;28;20046;-74
2021/10/11 03:17:04;;;;;;;16.70;10.95;;;;;;;15.64;46.42;102132.16;4990869;28;20069;-73
2021/10/11 03:19:31;;;;;;;17.55;11.60;;;;;;;15.61;46.25;102129.59;4991930;28;20046;-74
2021/10/11 03:21:58;;;;;;;15.32;11.15;;;;;;;15.59;46.52;102131.56;4991483;28;20043;-74
2021/10/11 03:24:25;;;;;;;15.43;10.60;;;;;;;15.58;46.29;102140.75;4992618;28;20129;-74
2021/10/11 03:26:51;;;;;;;16.40;11.85;;;;;;;15.57;46.61;102139.88;4990833;28;20732;-74
2021/10/11 03:29:18;;;;;;;16.75;11.65;;;;;;;15.57;46.64;102147.22;4992029;28;20086;-74
2021/10/11 03:31:45;;;;;;;17.35;10.95;;;;;;;15.55;46.46;102135.50;4991493;28;20425;-74
2021/10/11 03:34:12;;;;;;;16.50;11.57;;;;;;;15.57;46.45;102137.13;4993207;28;20482;-74
2021/10/11 03:36:39;;;;;;;16.45;11.52;;;;;;;15.59;46.08;102137.91;4992656;28;20473;-74
2021/10/11 03:39:07;;;;;;;16.73;11.07;;;;;;;15.60;46.28;102130.59;4984841;28;20081;-74
2021/10/11 03:41:34;;;;;;;16.27;11.50;;;;;;;15.62;46.54;102136.84;4993277;28;20062;-76
2021/10/11 03:44:03;;;;;;;17.60;11.60;;;;;;;15.62;46.58;102138.69;4975043;28;20124;-76
2021/10/11 03:46:30;;;;;;;15.10;11.02;;;;;;;15.64;46.20;102145.84;4993256;28;20084;-76
2021/10/11 03:48:56;;;;;;;16.40;10.88;;;;;;;15.64;46.21;102140.38;4981734;28;20057;-76
2021/10/11 03:51:23;;;;;;;17.20;11.57;;;;;;;15.67;46.53;102128.31;4993220;28;20129;-76
2021/10/11 03:53:50;;;;;;;17.15;10.77;;;;;;;15.68;46.12;102132.81;4995556;28;20133;-74
2021/10/11 03:56:17;;;;;;;17.40;12.15;;;;;;;15.69;46.38;102132.69;4992774;28;20089;-74
2021/10/11 03:58:44;;;;;;;16.83;11.00;;;;;;;15.71;46.30;102125.28;4965486;28;20522;-74
2021/10/11 04:01:10;;;;;;;16.05;11.10;;;;;;;15.72;46.70;102129.78;4993787;28;20117;-74
2021/10/11 04:03:37;;;;;;;17.70;12.13;;;;;;;15.73;46.81;102119.69;4985755;28;20169;-74
2021/10/11 04:06:04;;;;;;;19.17;12.30;;;;;;;15.74;46.84;102116.81;4992715;28;20125;-74
2021/10/11 04:08:37;;;;;;;19.30;12.30;;;;;;;15.75;46.95;102118.59;4966022;28;20145;-74
2021/10/11 04:13:37;;;;;;;15.18;10.50;;;;;;;15.76;46.65;102116.72;4990474;28;20089;-74
2021/10/11 04:16:08;;;;;;;14.20;10.18;;;;;;;15.80;46.46;102107.34;4974788;28;20084;-74
2021/10/11 04:18:35;;;;;;;17.70;10.95;;;;;;;15.80;46.65;102110.06;4991584;28;20445;-74
2021/10/11 04:21:02;;;;;;;16.30;11.73;;;;;;;15.81;46.69;102106.34;4992610;28;20486;-74
2021/10/11 04:23:29;;;;;;;17.15;11.10;;;;;;;15.83;46.41;102107.09;4958656;28;20066;-74
2021/10/11 04:25:56;;;;;;;16.45;11.43;;;;;;;15.84;46.50;102107.00;4991237;28;20085;-74
2021/10/11 04:28:23;;;;;;;16.60;11.27;;;;;;;15.86;46.36;102110.53;4991106;28;20617;-74
2021/10/11 04:30:51;;;;;;;16.73;11.20;;;;;;;15.87;46.74;102114.13;4991782;28;20089;-74
2021/10/11 04:33:18;;;;;;;17.10;11.35;;;;;;;15.88;46.95;102107.69;4988742;28;20074;-74
2021/10/11 04:35:45;;;;;;;14.95;10.73;;;;;;;15.90;46.92;102117.53;4974678;28;20042;-74
2021/10/11 04:38:13;;;;;;;17.75;12.23;;;;;;;15.91;47.01;102119.28;4990474;28;20054;-74
2021/10/11 04:40:40;;;;;;;17.73;11.25;;;;;;;15.92;46.63;102125.63;4985011;28;20054;-74
2021/10/11 04:43:07;;;;;;;15.20;11.30;;;;;;;15.92;47.12;102133.84;4986719;28;20137;-74
2021/10/11 04:45:38;;;;;;;15.77;11.45;;;;;;;15.94;46.77;102132.78;4990247;28;20137;-74
2021/10/11 04:48:08;;;;;;;14.23;10.43;;;;;;;15.95;46.71;102133.66;4990365;28;20105;-75
2021/10/11 04:50:35;;;;;;;15.55;10.77;;;;;;;15.95;46.82;102134.53;4985925;28;20438;-75
2021/10/11 04:53:04;;;;;;;16.48;11.38;;;;;;;15.98;47.03;102137.03;4993449;28;20069;-75
2021/10/11 04:55:31;;;;;;;16.40;11.13;;;;;;;15.97;46.92;102138.06;4989469;28;20047;-75
2021/10/11 04:57:58;;;;;;;16.35;10.85;;;;;;;15.99;47.06;102143.41;4988824;28;20070;-74
2021/10/11 05:00:24;;;;;;;17.52;12.13;;;;;;;16.00;46.71;102142.44;4990843;28;20084;-74
2021/10/11 05:02:51;;;;;;;15.95;11.23;;;;;;;16.01;47.12;102135.97;4987176;28;20046;-75
2021/10/11 05:05:18;;;;;;;17.27;11.82;;;;;;;16.02;46.93;102131.38;4979896;28;20410;-75
2021/10/11 05:07:45;;;;;;;16.83;11.65;;;;;;;16.04;46.96;102138.50;4988622;28;20502;-74
2021/10/11 05:10:11;;;;;;;19.40;11.55;;;;;;;16.04;47.05;102135.75;4989881;28;20058;-77
2021/10/11 05:12:38;;;;;;;15.55;10.75;;;;;;;16.05;47.06;102133.91;4989592;28;20521;-75
2021/10/11 05:15:06;;;;;;;14.57;10.45;;;;;;;16.08;47.15;102133.66;4990998;28;20090;-77
2021/10/11 05:17:33;;;;;;;18.92;12.32;;;;;;;16.08;47.16;102136.41;4989462;28;20129;-77
2021/10/11 05:20:01;;;;;;;17.83;11.65;;;;;;;16.07;47.29;102141.00;4989605;28;20141;-77
2021/10/11 05:22:29;;;;;;;16.05;11.10;;;;;;;16.09;47.08;102151.88;4989255;28;20397;-76
2021/10/11 05:24:55;;;;;;;17.58;11.88;;;;;;;16.08;47.25;102144.63;4990660;28;20100;-75
2021/10/11 05:27:22;;;;;;;16.92;12.00;;;;;;;16.08;47.51;102145.50;4971501;28;20151;-74
2021/10/11 05:29:49;;;;;;;16.60;11.90;;;;;;;16.09;47.36;102155.50;4994651;28;20108;-74
2021/10/11 05:32:15;;;;;;;16.02;10.90;;;;;;;16.09;47.43;102158.22;4987213;28;20101;-72
2021/10/11 05:34:42;;;;;;;15.88;11.02;;;;;;;16.10;47.22;102150.88;4987262;28;20054;-73
2021/10/11 05:37:09;;;;;;;16.73;11.20;;;;;;;16.10;47.12;102156.38;4972390;28;20080;-74
2021/10/11 05:39:36;;;;;;;16.40;11.95;;;;;;;16.12;47.38;102154.41;4989567;28;20557;-73
2021/10/11 05:42:06;;;;;;;16.67;11.13;;;;;;;16.13;47.24;102150.69;4990173;28;20460;-73
2021/10/11 05:44:32;;;;;;;17.77;11.02;;;;;;;16.13;47.60;102158.91;4987551;28;20489;-74
2021/10/11 05:47:02;;;;;;;18.38;11.82;;;;;;;16.14;47.61;102155.19;4961597;28;20046;-74
2021/10/11 05:49:29;;;;;;;17.88;10.98;;;;;;;16.13;47.86;102157.03;4989503;28;20080;-74
2021/10/11 05:51:56;;;;;;;16.67;11.43;;;;;;;16.14;47.91;102161.50;4988656;28;20053;-74
2021/10/11 05:54:22;;;;;;;15.68;11.05;;;;;;;16.16;47.67;102164.16;4997563;28;20050;-73
2021/10/11 05:56:49;;;;;;;15.85;10.73;;;;;;;16.17;48.07;102165.91;4994570;28;20051;-75
2021/10/11 05:59:16;;;;;;;15.32;10.98;;;;;;;16.18;47.89;102163.06;4989894;28;20077;-74
2021/10/11 06:01:42;;;;;;;17.52;11.30;;;;;;;16.19;47.95;102162.09;4990853;28;20081;-73
2021/10/11 06:04:09;;;;;;;15.55;10.57;;;;;;;16.19;48.03;102155.72;4985085;28;20046;-75
2021/10/11 06:06:37;;;;;;;17.20;10.63;;;;;;;16.23;48.14;102157.25;4988220;28;20054;-75
2021/10/11 06:09:05;;;;;;;17.00;10.85;;;;;;;16.23;47.85;102155.41;4987212;28;20540;-76
2021/10/11 06:11:32;;;;;;;17.80;12.02;;;;;;;16.23;47.92;102149.91;4987200;28;20054;-76
2021/10/11 06:13:59;;;;;;;16.35;11.88;;;;;;;16.24;48.36;102148.94;4975517;28;20054;-74
2021/10/11 06:16:25;;;;;;;15.95;11.10;;;;;;;16.25;47.81;102141.59;5004990;28;20054;-73
2021/10/11 06:18:55;;;;;;;17.42;10.95;;;;;;;16.28;48.45;102145.00;4988527;28;20114;-73
2021/10/11 06:21:22;;;;;;;16.33;10.88;;;;;;;16.27;47.94;102153.34;4991962;28;20470;-72
2021/10/11 06:23:51;;;;;;;15.30;10.57;;;;;;;16.28;48.04;102155.97;4989062;28;20054;-73
2021/10/11 06:26:27;;;;;;;17.10;10.90;;;;;;;16.31;48.32;102146.63;4991227;28;20085;-73
2021/10/11 06:29:42;;;;;;;14.13;9.82;;;;;;;16.26;48.19;102149.72;4970735;28;20061;-73
2021/10/11 06:32:16;;;;;;;17.23;11.13;;;;;;;16.29;47.71;102155.00;4906259;29;20084;-75
2021/10/11 06:34:42;;;;;;;16.80;11.73;;;;;;;16.32;48.05;102152.00;4975354;28;20568;-75
2021/10/11 06:37:30;;;;;;;19.10;12.18;;;;;;;16.35;49.03;102156.41;4984370;28;20133;-75
2021/10/11 06:39:56;;;;;;;16.25;11.40;;;;;;;16.34;48.38;102163.75;4992941;28;20064;-74
2021/10/11 06:42:23;;;;;;;17.48;11.88;;;;;;;16.35;48.47;102168.25;4990046;28;20046;-75
2021/10/11 06:44:51;;;;;;;17.83;12.23;;;;;;;16.37;48.42;102181.84;4983691;28;20057;-74
2021/10/11 06:47:19;;;;;;;15.82;11.27;;;;;;;16.36;48.46;102167.28;4988162;28;20052;-73
2021/10/11 06:49:52;;;;;;;15.55;10.73;;;;;;;16.40;49.00;102180.75;4987589;28;20098;-73
2021/10/11 06:52:42;;;;;;;16.50;11.88;;;;;;;16.35;48.41;102184.69;4973505;28;20136;-75
2021/10/11 06:55:09;;;;;;;16.25;11.23;;;;;;;16.38;48.60;102182.75;4992916;28;20047;-75
2021/10/11 06:57:36;;;;;;;17.55;11.85;;;;;;;16.38;48.61;102180.00;4967380;28;20058;-74
2021/10/11 07:00:03;;;;;;;19.33;12.20;;;;;;;16.41;48.60;102188.88;4993819;28;20101;-74
2021/10/11 07:02:30;;;;;;;17.92;12.02;;;;;;;16.41;48.98;102187.97;4993141;28;20089;-75
2021/10/11 07:04:58;;;;;;;19.25;12.55;;;;;;;16.43;48.99;102197.00;4979435;28;20130;-73
2021/10/11 07:07:28;;;;;;;17.58;11.13;;;;;;;16.44;48.56;102196.00;4975305;28;20141;-74
2021/10/11 07:09:55;;;;;;;16.85;11.65;;;;;;;16.44;48.67;102198.75;4991362;28;20054;-74
2021/10/11 07:12:21;;;;;;;18.70;12.73;;;;;;;16.45;48.69;102201.38;4965353;28;20108;-74
2021/10/11 07:14:50;;;;;;;17.58;11.95;;;;;;;16.47;49.03;102201.28;4973276;28;20125;-74
2021/10/11 07:17:20;;;;;;;16.10;11.30;;;;;;;16.49;48.64;102200.16;4979537;28;20054;-74
2021/10/11 07:19:48;;;;;;;16.92;11.32;;;;;;;16.48;48.88;102190.19;4993085;28;20116;-74
2021/10/11 07:22:18;;;;;;;17.08;10.90;;;;;;;16.54;49.24;102200.75;4995990;28;20126;-74
2021/10/11 07:24:46;;;;;;;18.33;11.00;;;;;;;16.55;48.98;102198.88;4989132;28;20047;-73
2021/10/11 07:27:14;;;;;;;16.45;11.23;;;;;;;16.59;49.11;102197.66;4991196;28;20686;-73
2021/10/11 07:29:42;;;;;;;14.95;10.23;;;;;;;16.60;49.38;102197.56;4992440;28;20501;-74
2021/10/11 07:32:08;;;;;;;15.00;10.65;;;;;;;16.63;49.10;102205.63;4990739;28;20104;-74
2021/10/11 07:34:35;;;;;;;13.73;8.88;;;;;;;16.67;49.25;102209.00;4993634;28;20508;-74
2021/10/11 07:37:02;;;;;;;12.10;7.68;;;;;;;16.70;49.20;102215.16;4977263;28;20064;-73
2021/10/11 07:39:29;;;;;;;12.18;7.40;;;;;;;16.74;49.36;102216.69;4990783;28;20524;-74
2021/10/11 07:41:58;;;;;;;8.38;5.45;;;;;;;16.79;49.15;102210.00;4990703;28;20133;-74
2021/10/11 07:44:24;;;;;;;8.23;4.50;;;;;;;16.84;49.16;102213.28;4991109;28;20193;-75
2021/10/11 07:46:54;;;;;;;6.65;4.18;;;;;;;16.89;49.41;102224.78;4995260;28;20074;-75
2021/10/11 07:49:29;;;;;;;5.35;3.22;;;;;;;16.94;49.67;102222.63;4991797;28;20063;-75
2021/10/11 07:51:56;;;;;;;5.75;3.08;;;;;;;16.99;49.81;102231.38;4989801;28;20120;-74
2021/10/11 07:54:22;;;;;;;5.50;2.97;;;;;;;17.03;49.30;102236.56;4990873;28;20054;-74
2021/10/11 07:56:49;;;;;;;7.15;2.97;;;;;;;17.08;49.38;102225.22;4989718;28;20104;-74
2021/10/11 07:59:16;;;;;;;5.68;2.72;;;;;;;17.12;49.47;102240.50;4989506;28;20097;-75
2021/10/11 08:01:55;;;;;;;4.57;2.40;;;;;;;17.18;49.29;102245.53;4990481;28;20047;-74
2021/10/11 08:04:24;;;;;;;5.45;2.45;;;;;;;17.23;49.65;102245.19;4983838;28;20050;-76
2021/10/11 08:06:51;;;;;;;6.28;2.40;;;;;;;17.27;49.78;102244.88;4980250;28;20089;-73
2021/10/11 08:09:18;;;;;;;5.60;2.17;;;;;;;17.33;49.29;102263.63;4975139;28;20050;-73
2021/10/11 08:11:46;;;;;;;5.60;2.30;;;;;;;17.37;49.38;102251.47;4990863;28;20047;-75
2021/10/11 08:14:13;;;;;;;5.07;2.10;;;;;;;17.41;49.60;102250.22;4990341;28;20054;-75
2021/10/11 08:16:40;;;;;;;4.70;2.00;;;;;;;17.46;49.39;102258.09;4990465;28;20208;-75
2021/10/11 08:19:08;;;;;;;6.05;1.92;;;;;;;17.50;49.27;102252.28;4984856;28;20062;-75
2021/10/11 08:21:45;;;;;;;4.70;1.83;;;;;;;17.56;49.14;102250.06;4990814;28;20058;-74
2021/10/11 08:24:12;;;;;;;4.40;1.88;;;;;;;17.60;49.11;102257.13;4989440;28;20142;-75
2021/10/11 08:26:39;;;;;;;6.07;2.05;;;;;;;17.66;49.18;102256.69;4992885;28;20105;-74
2021/10/11 08:29:05;;;;;;;6.28;2.30;;;;;;;17.69;49.26;102261.97;5000957;28;20066;-75
2021/10/11 08:31:32;;;;;;;5.85;1.90;;;;;;;17.74;49.46;102268.84;4991137;28;20084;-76
2021/10/11 08:33:59;;;;;;;4.75;1.80;;;;;;;17.79;49.11;102271.25;4988843;28;20362;-75
2021/10/11 08:36:26;;;;;;;6.43;1.90;;;;;;;17.84;49.41;102263.56;4987135;28;20128;-76
2021/10/11 08:38:53;;;;;;;6.20;1.88;;;;;;;17.89;49.02;102264.06;4990090;28;20050;-76
2021/10/11 08:41:20;;;;;;;5.82;2.05;;;;;;;17.93;48.89;102259.25;4992091;28;20074;-76
2021/10/11 08:43:46;;;;;;;4.47;1.73;;;;;;;17.97;49.35;102258.88;4989736;28;20065;-77
2021/10/11 08:46:14;;;;;;;4.95;2.00;;;;;;;18.02;48.73;102261.28;4986645;28;20105;-76
2021/10/11 08:48:40;;;;;;;4.20;1.60;;;;;;;18.06;49.05;102260.94;4973340;28;20809;-76
2021/10/11 08:51:08;;;;;;;5.07;1.80;;;;;;;18.11;48.92;102246.84;4992596;28;20129;-76
2021/10/11 08:53:36;;;;;;;6.60;2.13;;;;;;;18.15;48.95;102245.59;4978504;28;20050;-77
2021/10/11 08:56:04;;;;;;;6.25;1.80;;;;;;;18.21;48.90;102253.38;4972241;28;20047;-77
2021/10/11 08:58:48;;;;;;;4.18;1.63;;;;;;;18.25;48.44;102261.28;4991409;28;20054;-78
2021/10/11 09:01:15;;;;;;;5.55;2.22;;;;;;;18.26;48.13;102253.91;4992480;28;20070;-77
2021/10/11 09:03:42;;;;;;;4.82;1.80;;;;;;;18.31;48.39;102257.19;4972421;28;20637;-77
2021/10/11 09:06:11;;;;;;;4.30;1.55;;;;;;;18.36;48.31;102251.34;4991046;28;20061;-77
2021/10/11 09:08:40;;;;;;;5.03;1.75;;;;;;;18.38;47.81;102254.81;4990990;28;20108;-77
2021/10/11 09:11:12;;;;;;;5.68;1.42;;;;;;;18.41;48.27;102254.59;4992021;28;20744;-77
2021/10/11 09:13:45;;;;;;;5.15;1.83;;;;;;;18.43;47.58;102253.50;4991258;28;20108;-76
2021/10/11 09:16:16;;;;;;;;;;;;;;;18.20;48.41;102262.66;4991322;28;20058;-78
2021/10/11 09:18:51;;;;;;;4.20;1.30;;;;;;;18.45;47.90;102256.09;4991625;28;19922;-77
2021/10/11 09:21:29;;;;;;;4.15;1.40;;;;;;;18.51;47.63;102255.66;4988879;28;20059;-77
2021/10/11 09:24:13;;;;;;;5.15;1.55;;;;;;;18.54;47.62;102264.50;4973731;28;20109;-78
2021/10/11 09:26:48;;;;;;;3.97;1.33;;;;;;;18.56;47.14;102258.91;4975697;28;20121;-81
2021/10/11 09:29:28;;;;;;;4.40;1.52;;;;;;;18.58;47.37;102252.31;4981556;28;20050;-78
2021/10/11 09:31:59;;;;;;;6.78;1.95;;;;;;;18.60;47.56;102269.59;4991024;28;20150;-79
2021/10/11 09:34:26;;;;;;;4.22;1.90;;;;;;;18.62;47.97;102263.94;4980280;28;20150;-78
2021/10/11 09:36:58;;;;;;;4.10;1.50;;;;;;;18.67;47.67;102264.47;4972931;28;20051;-76
2021/10/11 09:39:27;;;;;;;4.55;1.80;;;;;;;18.68;47.82;102263.50;4974208;28;20054;-77
2021/10/11 09:41:59;;;;;;;4.05;1.30;;;;;;;18.74;47.30;102267.63;4988892;28;20088;-78
2021/10/11 09:44:27;;;;;;;5.50;1.75;;;;;;;18.74;47.15;102270.38;4988561;28;20073;-76
2021/10/11 09:47:08;;;;;;;3.65;1.40;;;;;;;18.77;47.33;102268.28;4970310;28;20068;-77
2021/10/11 09:49:35;;;;;;;4.07;1.90;;;;;;;18.79;47.50;102262.63;4986029;28;20109;-76
2021/10/11 09:52:03;;;;;;;4.95;1.83;;;;;;;18.82;47.05;102266.03;4983935;28;20089;-77
2021/10/11 09:54:30;;;;;;;4.00;1.40;;;;;;;18.82;47.31;102255.00;4996366;28;20081;-77
2021/10/11 09:57:00;;;;;;;5.78;1.35;;;;;;;18.86;47.28;102247.41;4986705;28;20133;-76
2021/10/11 09:59:27;;;;;;;3.63;1.73;;;;;;;18.89;47.00;102258.16;4990246;28;20355;-77
2021/10/11 10:01:54;;;;;;;3.50;1.27;;;;;;;18.89;47.32;102252.63;4988795;28;20058;-76
2021/10/11 10:04:29;;;;;;;3.13;1.20;;;;;;;18.93;47.26;102244.03;4990093;28;20062;-77
2021/10/11 10:07:01;;;;;;;4.03;1.35;;;;;;;18.95;46.74;102244.75;4988482;28;20042;-76
2021/10/11 10:09:30;;;;;;;4.00;1.38;;;;;;;18.96;46.90;102249.28;5001831;28;20050;-76
2021/10/11 10:11:57;;;;;;;5.03;1.67;;;;;;;19.00;46.60;102249.91;5001602;28;20046;-77
2021/10/11 10:14:26;;;;;;;3.58;1.42;;;;;;;19.04;46.45;102250.53;5008107;28;20046;-77
2021/10/11 10:16:54;;;;;;;3.85;1.20;;;;;;;19.06;46.18;102243.03;4994746;28;20074;-77
2021/10/11 10:19:37;;;;;;;5.97;1.42;;;;;;;19.09;46.31;102246.44;4989848;28;20290;-77
2021/10/11 10:22:10;;;;;;;3.95;1.13;;;;;;;19.08;46.24;102244.66;4969781;28;20054;-77
2021/10/11 10:24:36;;;;;;;;;;;;;;;18.85;46.68;102246.53;4981989;28;20556;-77
2021/10/11 10:27:13;;;;;;;4.35;1.20;;;;;;;19.12;45.63;102245.28;4988130;28;19929;-77
2021/10/11 10:29:44;;;;;;;3.05;1.08;;;;;;;19.13;46.06;102247.91;4990587;28;20062;-76
2021/10/11 10:32:12;;;;;;;4.00;1.20;;;;;;;19.17;45.72;102246.69;4993030;28;20085;-77
2021/10/11 10:34:39;;;;;;;5.53;1.55;;;;;;;19.18;45.90;102240.19;4993710;28;20516;-77
2021/10/11 10:37:11;;;;;;;3.45;1.27;;;;;;;19.20;45.93;102243.66;4965586;28;20102;-77
2021/10/11 10:39:39;;;;;;;6.93;1.55;;;;;;;19.23;46.13;102243.44;4976469;28;20149;-77
2021/10/11 10:42:08;;;;;;;5.05;1.42;;;;;;;19.25;45.90;102244.19;5012130;28;20042;-77
2021/10/11 10:44:45;;;;;;;3.53;1.55;;;;;;;19.30;45.28;102252.06;5004697;28;20501;-77
2021/10/11 10:47:12;;;;;;;3.65;1.13;;;;;;;19.28;45.82;102243.91;4974373;28;20046;-77
2021/10/11 10:49:47;;;;;;;3.42;1.20;;;;;;;19.33;45.60;102236.16;4993189;28;20050;-77
2021/10/11 10:52:15;;;;;;;3.83;1.20;;;;;;;19.34;45.92;102242.56;4991528;28;20054;-77
2021/10/11 10:54:50;;;;;;;5.55;1.60;;;;;;;19.35;45.71;102245.16;4992756;28;20059;-77
2021/10/11 10:57:20;;;;;;;5.97;1.60;;;;;;;19.37;45.68;102248.69;4961842;28;20121;-80
2021/10/11 11:00:04;;;;;;;4.10;1.27;;;;;;;19.42;45.53;102245.56;4994892;28;20076;-79
2021/10/11 11:02:31;;;;;;;3.65;1.17;;;;;;;19.41;45.92;102246.56;4957178;28;20448;-78
2021/10/11 11:05:02;;;;;;;4.15;1.30;;;;;;;19.48;45.38;102252.47;4977782;28;20046;-80
2021/10/11 11:07:38;;;;;;;4.28;1.20;;;;;;;19.52;45.18;102248.47;4975347;28;20046;-80
2021/10/11 11:10:16;;;;;;;2.47;1.10;;;;;;;19.55;44.67;102259.22;4994394;28;20050;-79
2021/10/11 11:12:49;;;;;;;4.00;1.20;;;;;;;19.54;45.02;102258.34;4995579;28;20046;-79
2021/10/11 11:15:36;;;;;;;2.95;1.02;;;;;;;19.55;45.34;102246.31;4994807;28;20106;-79
2021/10/11 11:18:13;;;;;;;3.53;1.10;;;;;;;19.61;45.06;102245.81;4968875;28;20070;-78
2021/10/11 11:20:41;;;;;;;6.25;1.33;;;;;;;19.62;45.08;102246.69;4980457;28;20136;-77
2021/10/11 11:23:31;;;;;;;9.40;1.48;;;;;;;19.67;44.74;102252.72;4994573;28;20132;-78